Archival Weather

Granbury Rgnl

Granbury, Texas (KGDJ)

Report from: Monday, January 29, 2024 7:55 AM UTC
Current time: Tuesday, June 18, 2024 1:37 PM UTC

Current weather – Weather history – Daily summaries
Weather forecast

Temperature2.9°C (37.2°F)
Dew point1.4°C (34.5°F)
Winds Calm
Visibility10 mi. (16.1 km)
Clouds Sky clear
Altimeter30.34 in.Hg (1027 mB)
Relative humidity90 %
Density altitude-1,850 ft. (-564 m)
Remarks Fully automated report
Automated weather observing station with precipitation discriminator
Flight conditions Visual Meteorological Conditions
Raw dataKGDJ 290755Z AUTO 00000KT 10SM CLR 03/01 A3034 RMK AO2 T00290014
An error has occurred. This application may no longer respond until reloaded. Reload 🗙